Time;durP1;ratioP1;P1;durP2;ratioP2;P2;SDS_P1;SDS_P2;PMS_P1;PMS_P2;Temp;Humidity;BMP_temperature;BMP_pressure;BME280_temperature;BME280_humidity;BME280_pressure;Samples;Min_cycle;Max_cycle;Signal;HPM_P1;HPM_P2
2023/03/21 00:01:04;;;;;;;17.02;11.10;;;10.60;84.30;;;;;;5024273;28;20452;-78
2023/03/21 00:03:32;;;;;;;21.27;12.35;;;10.60;84.40;;;;;;5030206;28;20061;-77
2023/03/21 00:06:03;;;;;;;18.90;11.85;;;10.60;84.40;;;;;;5006618;28;20049;-80
2023/03/21 00:08:29;;;;;;;18.90;10.98;;;10.60;84.40;;;;;;5025666;28;20030;-75
2023/03/21 00:10:59;;;;;;;18.70;11.95;;;10.60;84.40;;;;;;5026832;28;20048;-76
2023/03/21 00:13:27;;;;;;;19.08;11.55;;;10.60;84.50;;;;;;5026796;28;20083;-75
2023/03/21 00:15:53;;;;;;;17.95;10.18;;;10.60;84.50;;;;;;5021020;28;20040;-77
2023/03/21 00:18:24;;;;;;;18.88;11.23;;;10.60;84.40;;;;;;5023015;28;20029;-77
2023/03/21 00:21:02;;;;;;;19.52;11.35;;;10.60;84.40;;;;;;5024115;28;20025;-78
2023/03/21 00:23:30;;;;;;;20.75;11.07;;;10.60;84.50;;;;;;5020161;28;20029;-76
2023/03/21 00:25:56;;;;;;;18.85;10.88;;;10.60;84.40;;;;;;5023015;28;20039;-78
2023/03/21 00:28:22;;;;;;;22.65;10.75;;;10.60;84.30;;;;;;5019720;28;20401;-75
2023/03/21 00:30:48;;;;;;;18.02;11.55;;;10.60;84.20;;;;;;5013623;28;20448;-79
2023/03/21 00:33:14;;;;;;;17.67;11.32;;;10.50;84.20;;;;;;5023519;28;20038;-78
2023/03/21 00:35:46;;;;;;;21.10;11.32;;;10.60;84.20;;;;;;5016789;28;20434;-79
2023/03/21 00:38:13;;;;;;;16.92;10.45;;;10.50;84.10;;;;;;5026602;28;20029;-77
2023/03/21 00:40:39;;;;;;;20.83;11.10;;;10.50;84.20;;;;;;5018795;28;20474;-77
2023/03/21 00:43:05;;;;;;;18.05;11.30;;;10.50;84.00;;;;;;5023054;28;20068;-77
2023/03/21 00:45:30;;;;;;;18.83;11.80;;;10.50;84.00;;;;;;5020177;28;20017;-74
2023/03/21 00:47:56;;;;;;;16.30;10.65;;;10.40;84.00;;;;;;5019011;28;20067;-76
2023/03/21 00:50:23;;;;;;;15.63;9.52;;;10.40;84.10;;;;;;5011459;28;20061;-77
2023/03/21 00:52:48;;;;;;;19.33;11.07;;;10.40;84.00;;;;;;5018581;28;20033;-74
2023/03/21 00:55:16;;;;;;;19.38;10.27;;;10.40;83.80;;;;;;5030296;28;20091;-76
2023/03/21 00:57:44;;;;;;;19.52;10.98;;;10.40;83.90;;;;;;5021483;28;20083;-74
2023/03/21 01:00:12;;;;;;;18.83;9.93;;;10.40;83.80;;;;;;5021700;28;20036;-77
2023/03/21 01:02:55;;;;;;;18.13;10.80;;;10.40;83.60;;;;;;5008936;28;20485;-76
2023/03/21 01:08:15;;;;;;;17.75;9.82;;;10.40;83.50;;;;;;5018014;28;20040;-75
2023/03/21 01:10:43;;;;;;;18.10;11.35;;;10.40;83.50;;;;;;5000013;28;20029;-77
2023/03/21 01:13:10;;;;;;;17.83;10.13;;;10.40;83.40;;;;;;5023732;28;20030;-76
2023/03/21 01:15:41;;;;;;;21.48;12.90;;;10.40;83.50;;;;;;5026291;28;20057;-76
2023/03/21 01:18:07;;;;;;;18.52;10.80;;;10.50;83.10;;;;;;5017513;28;20022;-75
2023/03/21 01:20:32;;;;;;;19.45;11.40;;;10.40;83.00;;;;;;5014786;28;20445;-77
2023/03/21 01:22:58;;;;;;;21.65;13.05;;;10.40;83.00;;;;;;5019852;28;20034;-76
2023/03/21 01:25:24;;;;;;;25.38;14.80;;;10.40;83.00;;;;;;5016569;28;20030;-79
2023/03/21 01:27:50;;;;;;;20.67;12.00;;;10.40;82.90;;;;;;5019264;28;20041;-76
2023/03/21 01:30:16;;;;;;;21.55;12.45;;;10.40;82.90;;;;;;5019263;28;20030;-78
2023/03/21 01:32:41;;;;;;;21.65;12.02;;;10.40;82.80;;;;;;5021977;28;20586;-79
2023/03/21 01:35:07;;;;;;;16.27;10.63;;;10.40;82.70;;;;;;5031697;28;20095;-75
2023/03/21 01:37:33;;;;;;;16.52;9.30;;;10.40;82.60;;;;;;5020178;28;20037;-76
2023/03/21 01:39:59;;;;;;;18.80;9.10;;;10.50;82.60;;;;;;5020088;28;20045;-75
2023/03/21 01:42:24;;;;;;;17.55;9.73;;;10.50;82.40;;;;;;5018079;28;20045;-76
2023/03/21 01:45:06;;;;;;;19.50;9.32;;;10.50;82.40;;;;;;5020376;28;20373;-78
2023/03/21 01:47:31;;;;;;;16.83;9.13;;;10.50;82.40;;;;;;5021155;28;20053;-75
2023/03/21 01:50:02;;;;;;;18.40;10.70;;;10.50;82.20;;;;;;5021277;28;20406;-75
2023/03/21 01:52:36;;;;;;;16.33;10.05;;;10.50;82.30;;;;;;5020599;28;20055;-77
2023/03/21 01:55:05;;;;;;;20.10;9.50;;;10.40;82.20;;;;;;5020035;28;20039;-75
2023/03/21 01:57:37;;;;;;;16.45;9.05;;;10.40;82.20;;;;;;5007692;28;20520;-75
2023/03/21 02:00:11;;;;;;;17.27;8.75;;;10.40;82.30;;;;;;5018136;28;20022;-77
2023/03/21 02:02:49;;;;;;;17.13;8.35;;;10.50;82.20;;;;;;5022725;28;20456;-75
2023/03/21 02:05:18;;;;;;;15.75;8.77;;;10.50;82.20;;;;;;5006716;28;20104;-78
2023/03/21 02:07:44;;;;;;;16.42;8.85;;;10.50;82.10;;;;;;5023603;28;20164;-77
2023/03/21 02:10:15;;;;;;;17.05;8.73;;;10.50;82.10;;;;;;5027715;28;20428;-76
2023/03/21 02:12:41;;;;;;;17.17;9.40;;;10.50;82.00;;;;;;5037423;28;20045;-75
2023/03/21 02:15:07;;;;;;;12.02;7.40;;;10.50;82.10;;;;;;5018666;28;20516;-78
2023/03/21 02:17:33;;;;;;;17.80;8.35;;;10.50;82.10;;;;;;5022405;28;20029;-77
2023/03/21 02:20:07;;;;;;;15.80;8.27;;;10.50;82.00;;;;;;5021648;28;20036;-78
2023/03/21 02:22:39;;;;;;;13.90;7.43;;;10.50;82.00;;;;;;5029039;28;20068;-77
2023/03/21 02:25:33;;;;;;;15.88;7.65;;;10.50;82.20;;;;;;5023482;28;20109;-77
2023/03/21 02:28:17;;;;;;;17.17;7.60;;;10.50;82.20;;;;;;5021695;28;20033;-78
2023/03/21 02:31:13;;;;;;;17.15;8.15;;;10.50;82.30;;;;;;5018758;28;20029;-76
2023/03/21 02:34:19;;;;;;;18.85;8.88;;;10.50;82.20;;;;;;5023485;28;20108;-78
2023/03/21 02:36:57;;;;;;;16.55;8.15;;;10.60;81.90;;;;;;5022228;28;20037;-75
2023/03/21 02:39:50;;;;;;;14.77;8.02;;;10.60;81.70;;;;;;5021816;28;20516;-75
2023/03/21 02:42:36;;;;;;;17.00;8.07;;;10.60;81.70;;;;;;5003409;28;20036;-75
2023/03/21 02:45:07;;;;;;;15.45;7.72;;;10.60;81.40;;;;;;5014660;28;20541;-76
2023/03/21 02:47:46;;;;;;;19.85;8.40;;;10.60;81.20;;;;;;5011683;28;20530;-75
2023/03/21 02:50:25;;;;;;;19.45;8.18;;;10.70;81.10;;;;;;5015513;28;20053;-76
2023/03/21 02:52:52;;;;;;;16.95;8.45;;;10.80;80.90;;;;;;5018130;28;20037;-75
2023/03/21 02:55:27;;;;;;;17.27;8.38;;;10.70;80.90;;;;;;5022382;28;20040;-79
2023/03/21 02:57:55;;;;;;;14.38;8.15;;;10.70;80.80;;;;;;5019943;28;20026;-79
2023/03/21 03:00:25;;;;;;;17.13;8.90;;;10.70;80.90;;;;;;5022074;28;20330;-75
2023/03/21 03:02:51;;;;;;;17.65;8.20;;;10.80;80.90;;;;;;5020650;28;20136;-77
2023/03/21 03:05:20;;;;;;;20.50;9.00;;;10.80;80.80;;;;;;5022662;28;20021;-76
2023/03/21 03:07:54;;;;;;;19.33;8.63;;;10.80;80.70;;;;;;5022202;28;20120;-79
2023/03/21 03:10:23;;;;;;;17.20;9.27;;;10.80;80.80;;;;;;5038516;28;20444;-79
2023/03/21 03:12:55;;;;;;;17.85;8.50;;;10.80;80.80;;;;;;5035055;28;20552;-76
2023/03/21 03:15:50;;;;;;;15.27;8.88;;;10.80;81.00;;;;;;5035260;28;20607;-77
2023/03/21 03:18:48;;;;;;;19.65;9.38;;;10.80;81.00;;;;;;5020028;28;20077;-77
2023/03/21 03:21:14;;;;;;;19.55;9.27;;;10.80;81.20;;;;;;5010386;28;20409;-76
2023/03/21 03:24:06;;;;;;;17.63;9.77;;;10.80;81.80;;;;;;5019220;28;20110;-80
2023/03/21 03:26:45;;;;;;;18.08;8.32;;;10.70;82.20;;;;;;5030266;28;20039;-80
2023/03/21 03:29:15;;;;;;;17.98;8.65;;;10.70;82.20;;;;;;5017925;28;21481;-75
2023/03/21 03:32:06;;;;;;;16.85;8.75;;;10.70;82.30;;;;;;5019486;28;20155;-77
2023/03/21 03:34:39;;;;;;;21.40;9.32;;;10.70;82.70;;;;;;5017496;28;20037;-75
2023/03/21 03:37:08;;;;;;;17.50;9.15;;;10.70;82.80;;;;;;5014076;28;20038;-75
2023/03/21 03:39:42;;;;;;;17.63;8.73;;;10.70;82.90;;;;;;5021115;28;20040;-76
2023/03/21 03:42:16;;;;;;;19.55;8.88;;;10.60;83.20;;;;;;5020816;28;20037;-77
2023/03/21 03:44:42;;;;;;;18.93;10.27;;;10.70;83.50;;;;;;5035582;28;20037;-79
2023/03/21 03:47:11;;;;;;;17.35;9.43;;;10.60;83.80;;;;;;5020579;28;20216;-74
2023/03/21 03:49:55;;;;;;;23.02;9.73;;;10.60;84.00;;;;;;5019516;28;20670;-76
2023/03/21 03:52:32;;;;;;;16.40;9.38;;;10.60;84.20;;;;;;5021126;28;20405;-76
2023/03/21 03:54:59;;;;;;;16.98;9.02;;;10.60;84.40;;;;;;5020987;28;20800;-77
2023/03/21 03:57:26;;;;;;;18.65;9.13;;;10.60;84.50;;;;;;5024549;28;20044;-77
2023/03/21 03:59:52;;;;;;;19.05;9.48;;;10.60;84.50;;;;;;5024658;28;20036;-76
2023/03/21 04:02:19;;;;;;;21.05;10.63;;;10.60;84.80;;;;;;5008998;28;20034;-78
2023/03/21 04:04:44;;;;;;;22.23;10.50;;;10.60;85.00;;;;;;5015407;28;20099;-79
2023/03/21 04:07:10;;;;;;;18.30;9.73;;;10.60;85.30;;;;;;5017476;28;20373;-76
2023/03/21 04:09:36;;;;;;;24.85;10.50;;;10.60;85.40;;;;;;5020192;28;20923;-76
2023/03/21 04:12:02;;;;;;;17.10;10.10;;;10.60;85.40;;;;;;5019547;28;20033;-78
2023/03/21 04:14:27;;;;;;;16.13;10.32;;;10.60;85.50;;;;;;5020427;28;20113;-76
2023/03/21 04:16:53;;;;;;;20.75;9.95;;;10.60;85.60;;;;;;4999413;28;20077;-75
2023/03/21 04:19:19;;;;;;;20.45;9.88;;;10.50;85.80;;;;;;5021155;28;20385;-80
2023/03/21 04:21:45;;;;;;;17.08;10.45;;;10.50;86.00;;;;;;5018560;28;20033;-76
2023/03/21 04:24:12;;;;;;;16.48;10.05;;;10.60;86.10;;;;;;5020972;28;20026;-79
2023/03/21 04:26:38;;;;;;;20.80;11.18;;;10.50;86.10;;;;;;5022048;28;20041;-77
2023/03/21 04:29:04;;;;;;;22.63;11.48;;;10.60;86.40;;;;;;5018446;28;20041;-77
2023/03/21 04:31:32;;;;;;;21.20;10.00;;;10.50;86.50;;;;;;5021407;28;20048;-80
2023/03/21 04:34:02;;;;;;;16.50;10.38;;;10.50;86.60;;;;;;5022418;28;20333;-77
2023/03/21 04:36:37;;;;;;;23.65;11.02;;;10.50;86.70;;;;;;5021062;28;20033;-76
2023/03/21 04:39:11;;;;;;;19.10;10.98;;;10.50;86.80;;;;;;5018599;28;20021;-76
2023/03/21 04:41:38;;;;;;;21.67;11.50;;;10.50;87.00;;;;;;5028834;28;20449;-79
2023/03/21 04:44:04;;;;;;;21.80;12.23;;;10.40;87.30;;;;;;5021582;28;20029;-77
2023/03/21 04:46:29;;;;;;;19.10;10.18;;;10.40;87.40;;;;;;5021666;28;20069;-76
2023/03/21 04:48:55;;;;;;;17.45;9.95;;;10.40;87.40;;;;;;5017872;28;20045;-77
2023/03/21 04:51:21;;;;;;;17.63;10.05;;;10.40;87.50;;;;;;5020331;28;20052;-77
2023/03/21 04:53:48;;;;;;;18.55;10.68;;;10.30;87.40;;;;;;5017516;28;20033;-76
2023/03/21 04:56:14;;;;;;;19.30;9.65;;;10.20;87.40;;;;;;5014268;28;20080;-80
2023/03/21 04:58:41;;;;;;;20.23;10.13;;;10.20;87.30;;;;;;5019609;28;20033;-81
2023/03/21 05:01:07;;;;;;;18.55;10.35;;;10.20;87.30;;;;;;5033370;28;20493;-77
2023/03/21 05:03:38;;;;;;;19.10;10.35;;;10.20;87.40;;;;;;5035075;28;20720;-77
2023/03/21 05:06:06;;;;;;;18.95;10.40;;;10.10;87.50;;;;;;5024180;28;20038;-76
2023/03/21 05:08:31;;;;;;;19.58;11.82;;;10.10;87.60;;;;;;5015700;28;20022;-76
2023/03/21 05:10:57;;;;;;;21.52;11.43;;;10.10;87.80;;;;;;5022220;28;20599;-80
2023/03/21 05:13:23;;;;;;;19.17;11.40;;;10.10;87.90;;;;;;5019921;28;20392;-76
2023/03/21 05:15:48;;;;;;;21.30;12.10;;;10.10;88.00;;;;;;5024735;28;20029;-77
2023/03/21 05:18:14;;;;;;;20.67;11.48;;;10.10;88.10;;;;;;5023879;28;20033;-78
2023/03/21 05:20:44;;;;;;;22.20;12.05;;;10.10;88.30;;;;;;5024392;28;20037;-76
2023/03/21 05:23:10;;;;;;;22.48;12.68;;;10.10;88.30;;;;;;5020383;28;20033;-79
2023/03/21 05:25:39;;;;;;;21.55;13.48;;;10.10;88.40;;;;;;5006609;28;20461;-79
2023/03/21 05:28:06;;;;;;;23.35;12.88;;;10.10;88.40;;;;;;5022190;28;20419;-75
2023/03/21 05:30:32;;;;;;;23.67;13.55;;;10.10;88.50;;;;;;5021841;28;20060;-78
2023/03/21 05:32:59;;;;;;;21.35;14.48;;;10.10;88.60;;;;;;5024027;28;20036;-77
2023/03/21 05:35:24;;;;;;;22.15;14.80;;;10.20;88.60;;;;;;5024505;28;20029;-78
2023/03/21 05:37:50;;;;;;;27.88;15.48;;;10.20;88.70;;;;;;5037854;28;20610;-76
2023/03/21 05:40:16;;;;;;;23.92;15.40;;;10.20;88.80;;;;;;5013262;28;20630;-77
2023/03/21 05:42:42;;;;;;;26.30;16.67;;;10.20;88.80;;;;;;5011416;28;20036;-77
2023/03/21 05:45:08;;;;;;;28.38;18.17;;;10.20;89.00;;;;;;5009865;28;20026;-77
2023/03/21 05:47:33;;;;;;;31.23;19.52;;;10.20;89.00;;;;;;4994574;28;20129;-76
2023/03/21 05:49:59;;;;;;;26.08;18.67;;;10.20;89.10;;;;;;5011448;28;20740;-77
2023/03/21 05:52:25;;;;;;;31.80;19.17;;;10.30;89.20;;;;;;5007630;28;20048;-78
2023/03/21 05:54:51;;;;;;;33.08;20.20;;;10.30;89.20;;;;;;5009100;28;20132;-79
2023/03/21 05:57:18;;;;;;;31.63;20.00;;;10.30;89.30;;;;;;5018164;28;20720;-77
2023/03/21 05:59:44;;;;;;;30.38;19.48;;;10.30;89.20;;;;;;5029485;28;20036;-79
2023/03/21 06:02:10;;;;;;;31.77;20.70;;;10.40;89.10;;;;;;5021543;28;20029;-75
2023/03/21 06:04:36;;;;;;;34.05;20.10;;;10.40;89.00;;;;;;5012725;28;20033;-77
2023/03/21 06:07:02;;;;;;;29.95;19.35;;;10.40;88.90;;;;;;5020906;28;20449;-79
2023/03/21 06:09:28;;;;;;;31.73;20.63;;;10.40;88.90;;;;;;5023758;28;20037;-75
2023/03/21 06:11:55;;;;;;;27.58;18.83;;;10.40;88.80;;;;;;5027300;28;20060;-77
2023/03/21 06:14:22;;;;;;;28.42;19.83;;;10.40;88.70;;;;;;5022437;28;20269;-76
2023/03/21 06:16:48;;;;;;;29.00;18.77;;;10.40;88.80;;;;;;5020427;28;20068;-75
2023/03/21 06:19:14;;;;;;;28.60;18.83;;;10.40;88.70;;;;;;5013322;28;20505;-76
2023/03/21 06:21:40;;;;;;;33.42;18.55;;;10.40;88.70;;;;;;4991477;28;20141;-75
2023/03/21 06:24:06;;;;;;;32.08;18.00;;;10.40;88.70;;;;;;5018410;28;20024;-76
2023/03/21 06:26:32;;;;;;;32.15;17.88;;;10.40;88.60;;;;;;5038694;28;20033;-77
2023/03/21 06:28:57;;;;;;;35.20;18.73;;;10.40;88.60;;;;;;5015692;28;20076;-76
2023/03/21 06:31:25;;;;;;;28.50;17.60;;;10.40;88.40;;;;;;5020533;28;20346;-78
2023/03/21 06:33:51;;;;;;;26.75;17.65;;;10.50;88.20;;;;;;4998623;28;20033;-73
2023/03/21 06:36:18;;;;;;;27.20;17.88;;;10.50;88.20;;;;;;5020273;28;21441;-73
2023/03/21 06:38:45;;;;;;;28.70;17.13;;;10.40;88.20;;;;;;5024684;28;20048;-73
2023/03/21 06:41:12;;;;;;;27.42;17.63;;;10.50;88.20;;;;;;5020908;28;20404;-73
2023/03/21 06:43:38;;;;;;;24.27;16.15;;;10.50;88.10;;;;;;5018880;28;20081;-73
2023/03/21 06:46:04;;;;;;;24.88;17.02;;;10.50;88.10;;;;;;5002319;28;20053;-74
2023/03/21 06:48:30;;;;;;;27.17;16.70;;;10.60;87.90;;;;;;5020163;28;20045;-73
2023/03/21 06:50:56;;;;;;;25.20;15.32;;;10.60;87.80;;;;;;5018702;28;20124;-74
2023/03/21 06:53:26;;;;;;;29.67;16.02;;;10.60;87.80;;;;;;5015110;28;20394;-73
2023/03/21 06:55:52;;;;;;;23.10;15.35;;;10.60;87.60;;;;;;4997737;28;20049;-73
2023/03/21 06:58:19;;;;;;;26.80;15.80;;;10.60;87.60;;;;;;5025923;28;20021;-75
2023/03/21 07:00:45;;;;;;;23.98;15.00;;;10.70;87.40;;;;;;5023466;28;20211;-73
2023/03/21 07:03:12;;;;;;;25.45;14.50;;;10.60;87.30;;;;;;5024110;28;20033;-72
2023/03/21 07:05:38;;;;;;;29.60;16.10;;;10.70;87.20;;;;;;5021267;28;20120;-72
2023/03/21 07:08:05;;;;;;;27.55;15.38;;;10.70;87.10;;;;;;5022784;28;20495;-73
2023/03/21 07:10:31;;;;;;;22.33;14.35;;;10.80;87.00;;;;;;5023731;28;20030;-74
2023/03/21 07:12:59;;;;;;;21.50;14.13;;;10.80;86.90;;;;;;5022476;28;20721;-73
2023/03/21 07:15:25;;;;;;;27.90;14.00;;;10.90;86.90;;;;;;5030256;28;20026;-75
2023/03/21 07:17:51;;;;;;;24.08;13.32;;;10.90;86.50;;;;;;5020611;28;20143;-76
2023/03/21 07:20:17;;;;;;;25.75;14.90;;;11.00;86.20;;;;;;5018372;28;20589;-76
2023/03/21 07:22:43;;;;;;;23.17;13.30;;;11.10;86.10;;;;;;5021985;28;20026;-73
2023/03/21 07:25:09;;;;;;;24.98;14.07;;;11.10;85.90;;;;;;5013656;28;20133;-73
2023/03/21 07:27:35;;;;;;;25.02;13.10;;;11.10;85.80;;;;;;5018282;28;20113;-74
2023/03/21 07:30:05;;;;;;;20.65;12.68;;;11.10;85.70;;;;;;5027486;28;20512;-77
2023/03/21 07:32:36;;;;;;;24.50;13.23;;;11.20;85.30;;;;;;5022307;28;20037;-76
2023/03/21 07:35:02;;;;;;;20.40;13.15;;;11.20;85.30;;;;;;5023676;28;20108;-74
2023/03/21 07:37:28;;;;;;;22.38;12.63;;;11.30;85.20;;;;;;5025382;28;20033;-75
2023/03/21 07:39:54;;;;;;;22.63;13.68;;;11.40;84.90;;;;;;5025784;28;20091;-75
2023/03/21 07:42:20;;;;;;;19.55;11.45;;;11.40;84.80;;;;;;5017420;28;20124;-75
2023/03/21 07:44:46;;;;;;;24.10;12.48;;;11.40;84.80;;;;;;5011751;28;20029;-75
2023/03/21 07:47:11;;;;;;;23.25;12.45;;;11.50;84.60;;;;;;5008089;28;20533;-75
2023/03/21 07:49:37;;;;;;;23.73;12.43;;;11.50;84.40;;;;;;5012107;28;20492;-74
2023/03/21 07:52:03;;;;;;;24.25;12.13;;;11.50;84.40;;;;;;5009308;28;20125;-74
2023/03/21 07:54:29;;;;;;;21.08;12.25;;;11.60;83.90;;;;;;5008451;28;20628;-76
2023/03/21 07:56:56;;;;;;;22.33;12.45;;;11.60;83.60;;;;;;5008485;28;20064;-74
2023/03/21 07:59:22;;;;;;;20.75;11.27;;;11.70;83.70;;;;;;5008283;28;20018;-75
2023/03/21 08:01:48;;;;;;;19.55;11.00;;;11.80;83.30;;;;;;5009839;28;20414;-73
2023/03/21 08:04:14;;;;;;;19.58;10.73;;;11.90;82.80;;;;;;5009724;28;20033;-74
2023/03/21 08:06:40;;;;;;;19.30;10.73;;;12.00;82.50;;;;;;5011661;28;20120;-74
2023/03/21 08:09:06;;;;;;;19.92;10.55;;;12.00;82.10;;;;;;5009679;28;20034;-74
2023/03/21 08:11:31;;;;;;;19.33;11.23;;;12.10;82.30;;;;;;5024368;28;20401;-74
2023/03/21 08:13:58;;;;;;;23.73;10.68;;;12.10;81.80;;;;;;5023743;28;20026;-74
2023/03/21 08:16:24;;;;;;;21.60;10.23;;;12.20;81.50;;;;;;5009427;28;20048;-74
2023/03/21 08:18:50;;;;;;;18.58;10.88;;;12.30;81.00;;;;;;5013742;28;20060;-73
2023/03/21 08:21:16;;;;;;;16.15;9.60;;;12.40;80.90;;;;;;5019759;28;20093;-73
2023/03/21 08:23:42;;;;;;;19.42;10.13;;;12.40;80.50;;;;;;5032654;28;20098;-75
2023/03/21 08:26:08;;;;;;;18.75;9.95;;;12.50;80.30;;;;;;5021643;28;20044;-74
2023/03/21 08:28:35;;;;;;;16.25;10.48;;;12.40;80.20;;;;;;5024370;28;20017;-73
2023/03/21 08:31:07;;;;;;;16.25;9.35;;;12.40;79.90;;;;;;5018520;28;20053;-73
2023/03/21 08:33:33;;;;;;;16.40;9.77;;;12.50;80.00;;;;;;5014246;28;20111;-75
2023/03/21 08:35:59;;;;;;;21.30;9.85;;;12.50;79.80;;;;;;5007876;28;20049;-75
2023/03/21 08:38:28;;;;;;;18.27;9.68;;;12.50;79.90;;;;;;5008822;28;20199;-75
2023/03/21 08:40:55;;;;;;;18.35;10.43;;;12.50;79.80;;;;;;5021725;28;20437;-74
2023/03/21 08:43:21;;;;;;;17.73;10.38;;;12.40;79.50;;;;;;5022935;28;20529;-74
2023/03/21 08:45:47;;;;;;;19.17;9.98;;;12.40;79.60;;;;;;5024496;28;20021;-74
2023/03/21 08:48:13;;;;;;;16.77;9.20;;;12.40;79.70;;;;;;5020041;28;20025;-74
2023/03/21 08:50:39;;;;;;;17.23;10.45;;;12.30;79.80;;;;;;5020068;28;20041;-75
2023/03/21 08:53:04;;;;;;;18.10;10.38;;;12.40;80.00;;;;;;5020681;28;20100;-78
2023/03/21 08:55:32;;;;;;;15.88;9.13;;;12.60;79.40;;;;;;5019843;28;20203;-74
2023/03/21 08:57:58;;;;;;;13.38;9.00;;;12.50;79.10;;;;;;5016443;28;20126;-72
2023/03/21 09:00:24;;;;;;;16.60;9.50;;;12.50;79.20;;;;;;5001107;28;20029;-74
2023/03/21 09:02:53;;;;;;;18.70;9.80;;;12.50;79.50;;;;;;5021774;28;20042;-74
2023/03/21 09:05:19;;;;;;;15.93;9.38;;;12.50;79.60;;;;;;5028127;28;20025;-73
2023/03/21 09:07:46;;;;;;;16.67;9.18;;;12.60;79.30;;;;;;5002276;28;20398;-73
2023/03/21 09:10:17;;;;;;;16.95;8.35;;;12.50;79.30;;;;;;5025394;28;20127;-73
2023/03/21 09:12:43;;;;;;;16.15;8.80;;;12.40;79.70;;;;;;5032131;28;20041;-73
2023/03/21 09:15:11;;;;;;;19.95;9.45;;;12.50;79.30;;;;;;5015096;28;20029;-73
2023/03/21 09:17:42;;;;;;;16.52;8.90;;;12.60;79.00;;;;;;5017280;28;21401;-75
2023/03/21 09:20:17;;;;;;;15.70;8.43;;;12.70;79.00;;;;;;5013706;28;20121;-75
2023/03/21 09:22:47;;;;;;;16.05;9.15;;;12.80;77.80;;;;;;5018877;28;20065;-75
2023/03/21 09:25:15;;;;;;;15.45;8.00;;;12.90;77.50;;;;;;5019903;28;20481;-75
2023/03/21 09:27:51;;;;;;;18.77;8.02;;;13.10;76.70;;;;;;5020298;28;20097;-75
2023/03/21 09:30:20;;;;;;;13.55;7.55;;;13.20;76.30;;;;;;5019879;28;20037;-74
2023/03/21 09:32:49;;;;;;;18.20;8.13;;;13.40;75.70;;;;;;5015367;28;20037;-73
2023/03/21 09:35:17;;;;;;;14.80;8.23;;;13.40;75.20;;;;;;5014804;28;20726;-74
2023/03/21 09:37:44;;;;;;;15.45;8.32;;;13.40;74.70;;;;;;5014334;28;20026;-75
2023/03/21 09:40:17;;;;;;;16.30;7.75;;;13.30;74.60;;;;;;5026462;28;20021;-74
2023/03/21 09:42:55;;;;;;;15.13;7.93;;;13.30;75.30;;;;;;5017591;28;20037;-75
2023/03/21 09:45:50;;;;;;;17.50;8.73;;;13.50;74.70;;;;;;4999005;28;20025;-74
2023/03/21 09:48:28;;;;;;;14.27;8.05;;;13.70;73.60;;;;;;5005178;28;20409;-74
2023/03/21 09:50:55;;;;;;;14.63;7.70;;;13.70;73.50;;;;;;5003337;28;20045;-72
2023/03/21 09:53:31;;;;;;;12.98;6.95;;;13.70;73.70;;;;;;5023793;28;20025;-74
2023/03/21 09:56:00;;;;;;;13.85;8.10;;;13.70;73.50;;;;;;5026742;28;20030;-75
2023/03/21 09:58:31;;;;;;;14.10;8.25;;;13.60;73.80;;;;;;5016260;28;20731;-71
2023/03/21 10:01:26;;;;;;;13.68;8.57;;;13.40;74.30;;;;;;5029997;28;20425;-74
2023/03/21 10:03:55;;;;;;;15.73;8.52;;;13.40;74.90;;;;;;5025483;28;20036;-74
2023/03/21 10:06:29;;;;;;;16.63;7.25;;;13.30;74.30;;;;;;5019309;28;20440;-73
2023/03/21 10:09:06;;;;;;;16.98;8.40;;;13.20;74.70;;;;;;5022063;28;20589;-74
2023/03/21 10:11:58;;;;;;;16.52;7.53;;;13.10;74.90;;;;;;5017448;28;20111;-74
2023/03/21 10:14:44;;;;;;;15.43;7.18;;;13.10;74.10;;;;;;5013818;28;20045;-74
2023/03/21 10:17:29;;;;;;;13.57;7.75;;;13.20;73.90;;;;;;5014925;28;20037;-72
2023/03/21 10:20:10;;;;;;;19.95;7.30;;;13.30;73.60;;;;;;5022815;28;20118;-72
2023/03/21 10:22:37;;;;;;;12.57;6.90;;;13.40;73.10;;;;;;5023106;28;20087;-73
2023/03/21 10:25:05;;;;;;;12.85;7.18;;;13.30;72.70;;;;;;5007706;28;20387;-75
2023/03/21 10:27:32;;;;;;;11.80;7.25;;;13.40;72.80;;;;;;5021407;28;20033;-74
2023/03/21 10:29:59;;;;;;;13.38;7.13;;;13.90;73.20;;;;;;5021247;28;20033;-73
2023/03/21 10:32:25;;;;;;;13.68;6.40;;;14.40;71.60;;;;;;5017436;28;20092;-74
2023/03/21 10:34:57;;;;;;;12.90;6.63;;;14.70;70.10;;;;;;5026661;28;20501;-76
2023/03/21 10:37:23;;;;;;;13.30;6.10;;;14.90;69.10;;;;;;5024005;28;20049;-73
2023/03/21 10:39:54;;;;;;;14.02;6.80;;;15.20;67.60;;;;;;5022963;28;20033;-74
2023/03/21 10:42:29;;;;;;;14.68;5.97;;;15.30;67.30;;;;;;5022595;28;20029;-73
2023/03/21 10:44:56;;;;;;;13.57;6.15;;;15.10;67.40;;;;;;5029870;28;20044;-77
2023/03/21 10:47:25;;;;;;;10.15;4.78;;;15.10;67.00;;;;;;5019965;28;20176;-75
2023/03/21 10:49:50;;;;;;;10.27;5.15;;;14.90;66.90;;;;;;5018530;28;20372;-75
2023/03/21 10:52:22;;;;;;;11.00;5.13;;;14.70;68.40;;;;;;5015131;28;20037;-76
2023/03/21 10:54:49;;;;;;;9.25;4.82;;;14.60;68.60;;;;;;5013854;28;20131;-73
2023/03/21 10:57:21;;;;;;;11.23;4.82;;;14.70;68.80;;;;;;5014459;28;20228;-72
2023/03/21 10:59:57;;;;;;;10.77;4.93;;;15.00;69.00;;;;;;5020037;28;20049;-74
2023/03/21 11:02:35;;;;;;;22.67;5.15;;;15.20;67.80;;;;;;5019523;28;20064;-75
2023/03/21 11:05:25;;;;;;;12.00;5.38;;;15.10;67.30;;;;;;5022197;28;20496;-75
2023/03/21 11:08:23;;;;;;;10.55;4.90;;;15.10;67.30;;;;;;5016285;28;20041;-72
2023/03/21 11:11:08;;;;;;;9.35;4.50;;;14.80;68.10;;;;;;4978712;28;20049;-75
2023/03/21 11:13:38;;;;;;;9.60;4.97;;;14.70;68.50;;;;;;5022258;28;20025;-75
2023/03/21 11:16:10;;;;;;;10.63;4.93;;;14.80;68.70;;;;;;5015046;28;20496;-77
2023/03/21 11:18:48;;;;;;;14.00;5.38;;;14.90;68.80;;;;;;5001759;28;20115;-74
2023/03/21 11:21:20;;;;;;;13.00;5.78;;;15.00;68.30;;;;;;5008565;28;20045;-75
2023/03/21 11:23:51;;;;;;;11.75;5.75;;;15.10;68.50;;;;;;5012578;28;20097;-76
2023/03/21 11:26:35;;;;;;;10.15;5.93;;;15.00;68.20;;;;;;5012780;28;20030;-74
2023/03/21 11:29:27;;;;;;;11.23;5.70;;;14.90;68.90;;;;;;5027943;28;20034;-74
2023/03/21 11:31:58;;;;;;;13.90;5.88;;;15.00;68.60;;;;;;5010868;28;20124;-75
2023/03/21 11:34:37;;;;;;;12.68;6.13;;;15.10;69.00;;;;;;5012256;28;20025;-74
2023/03/21 11:37:03;;;;;;;14.75;5.97;;;15.30;68.00;;;;;;5023170;28;20616;-74
2023/03/21 11:39:39;;;;;;;14.30;6.20;;;15.50;67.30;;;;;;5012692;28;20112;-74
2023/03/21 11:42:24;;;;;;;12.15;5.57;;;15.60;67.20;;;;;;5012532;28;20271;-75
2023/03/21 11:45:01;;;;;;;13.02;6.22;;;15.80;66.50;;;;;;5009893;28;20030;-75
2023/03/21 11:47:27;;;;;;;11.77;6.05;;;15.50;66.80;;;;;;5011446;28;20068;-76
2023/03/21 11:49:55;;;;;;;12.85;5.28;;;15.50;67.30;;;;;;5011881;28;20754;-75
2023/03/21 11:52:45;;;;;;;9.90;5.40;;;15.30;68.10;;;;;;5011256;28;20052;-74
2023/03/21 11:55:45;;;;;;;11.80;6.13;;;15.20;68.40;;;;;;5011083;28;20029;-75
2023/03/21 11:58:11;;;;;;;12.57;6.18;;;15.10;69.40;;;;;;5004226;28;20029;-75
2023/03/21 12:01:05;;;;;;;15.10;6.57;;;15.10;69.30;;;;;;5012303;28;20447;-75
2023/03/21 12:03:42;;;;;;;12.50;6.07;;;15.00;69.20;;;;;;5012175;28;20618;-75
2023/03/21 12:06:37;;;;;;;12.07;6.50;;;15.10;69.60;;;;;;5009527;28;20401;-74
2023/03/21 12:09:09;;;;;;;14.90;6.15;;;15.00;69.50;;;;;;5011839;28;20033;-75
2023/03/21 12:11:42;;;;;;;12.73;6.72;;;15.00;69.80;;;;;;5012844;28;20042;-74
2023/03/21 12:14:30;;;;;;;13.52;6.20;;;14.90;69.80;;;;;;5012277;28;20082;-74
2023/03/21 12:17:19;;;;;;;13.27;6.50;;;14.80;70.20;;;;;;5014484;28;20135;-75
2023/03/21 12:19:53;;;;;;;13.05;6.45;;;14.70;70.80;;;;;;5022890;28;20286;-75
2023/03/21 12:22:53;;;;;;;16.25;7.63;;;14.60;71.20;;;;;;5008416;28;20548;-74
2023/03/21 12:25:27;;;;;;;13.20;7.22;;;14.50;71.90;;;;;;5012800;28;20030;-74
2023/03/21 12:27:59;;;;;;;14.25;7.28;;;14.40;72.50;;;;;;5010204;28;20391;-71
2023/03/21 12:30:36;;;;;;;11.60;6.97;;;14.30;73.00;;;;;;5021593;28;20037;-72
2023/03/21 12:33:17;;;;;;;11.02;6.78;;;14.30;73.20;;;;;;4995014;28;20489;-72
2023/03/21 12:36:11;;;;;;;12.15;6.18;;;14.30;73.60;;;;;;5022378;28;20484;-73
2023/03/21 12:38:48;;;;;;;12.20;6.35;;;14.20;73.90;;;;;;5026836;28;20025;-74
2023/03/21 12:41:42;;;;;;;13.50;5.78;;;14.40;74.10;;;;;;5017535;28;20596;-73
2023/03/21 12:44:15;;;;;;;12.75;5.53;;;14.30;74.50;;;;;;5016146;28;20393;-75
2023/03/21 12:46:59;;;;;;;14.07;5.38;;;14.10;75.10;;;;;;5023031;28;20242;-74
2023/03/21 12:49:47;;;;;;;11.23;6.63;;;14.20;75.30;;;;;;5026048;28;20045;-74
2023/03/21 12:52:24;;;;;;;10.27;5.95;;;14.20;75.00;;;;;;5004190;28;20030;-73
2023/03/21 12:54:52;;;;;;;12.48;7.15;;;14.10;75.50;;;;;;5020966;28;20021;-73